Wetterdaten: Woche 07.10.13 - 13.10.13 (KW41)
Datum Zeit Temp. Aussen +5cm Feuchte Auss Luftdruck Regen Sonnenschein Regendauer UV Solar Windben
07.10.2013 00:00 11,0 C 9,5 C 97 % 1026,1 hPa 0,0 l/m 0,00 h 0,00 h 0,0 UV-I 0 W/m 0,0 km/h (0 Bft)
07.10.2013 01:00 10,1 C 8,7 C 97 % 1026,2 hPa 0,0 l/m 0,00 h 0,00 h 0,0 UV-I 0 W/m 0,0 km/h (0 Bft)
07.10.2013 02:00 10,5 C 9,5 C 98 % 1026,2 hPa 0,0 l/m 0,00 h 0,00 h 0,0 UV-I 0 W/m 0,0 km/h (0 Bft)
07.10.2013 03:00 10,8 C 10,0 C 98 % 1026,1 hPa 0,0 l/m 0,00 h 0,00 h 0,0 UV-I 0 W/m 0,0 km/h (0 Bft)
07.10.2013 04:00 10,9 C 9,9 C 96 % 1026,0 hPa 0,0 l/m 0,00 h 0,00 h 0,0 UV-I 0 W/m 0,0 km/h (0 Bft)
07.10.2013 05:00 10,4 C 9,3 C 96 % 1025,9 hPa 0,0 l/m 0,00 h 0,00 h 0,0 UV-I 0 W/m 0,0 km/h (0 Bft)
07.10.2013 06:00 9,9 C 8,7 C 96 % 1025,9 hPa 0,0 l/m 0,00 h 0,00 h 0,0 UV-I 0 W/m 0,0 km/h (0 Bft)
07.10.2013 07:00 9,0 C 7,5 C 97 % 1026,2 hPa 0,0 l/m 0,00 h 0,00 h 0,0 UV-I 7 W/m 0,0 km/h (0 Bft)
07.10.2013 08:00 8,8 C 7,5 C 97 % 1026,4 hPa 0,0 l/m 0,00 h 0,00 h 0,0 UV-I 39 W/m 0,0 km/h (0 Bft)
07.10.2013 09:00 10,2 C 9,4 C 96 % 1026,6 hPa 0,0 l/m 0,33 h 0,00 h 0,0 UV-I 152 W/m 0,0 km/h (0 Bft)
07.10.2013 10:00 12,8 C 12,3 C 90 % 1026,8 hPa 0,0 l/m 0,40 h 0,00 h 0,5 UV-I 206 W/m 0,0 km/h (0 Bft)
07.10.2013 11:00 14,7 C 13,6 C 82 % 1026,9 hPa 0,0 l/m 0,30 h 0,00 h 1,0 UV-I 354 W/m 0,0 km/h (0 Bft)
07.10.2013 12:00 16,9 C 15,3 C 72 % 1026,8 hPa 0,0 l/m 0,97 h 0,00 h 1,4 UV-I 468 W/m 0,0 km/h (0 Bft)
07.10.2013 13:00 17,9 C 16,2 C 68 % 1026,4 hPa 0,0 l/m 0,97 h 0,00 h 1,6 UV-I 491 W/m 0,0 km/h (0 Bft)
07.10.2013 14:00 18,1 C 16,7 C 66 % 1025,9 hPa 0,0 l/m 0,87 h 0,00 h 1,5 UV-I 417 W/m 0,0 km/h (0 Bft)
07.10.2013 15:00 17,9 C 16,9 C 68 % 1025,5 hPa 0,0 l/m 0,37 h 0,00 h 0,8 UV-I 258 W/m 0,0 km/h (0 Bft)
07.10.2013 16:00 17,6 C 16,4 C 69 % 1025,2 hPa 0,0 l/m 0,13 h 0,00 h 0,5 UV-I 149 W/m 0,0 km/h (0 Bft)
07.10.2013 17:00 16,8 C 14,6 C 74 % 1024,9 hPa 0,0 l/m 0,07 h 0,00 h 0,0 UV-I 80 W/m 0,0 km/h (0 Bft)
07.10.2013 18:00 15,0 C 12,5 C 82 % 1025,0 hPa 0,0 l/m 0,00 h 0,00 h 0,0 UV-I 19 W/m 0,0 km/h (0 Bft)
07.10.2013 19:00 12,7 C 10,5 C 90 % 1025,2 hPa 0,0 l/m 0,00 h 0,00 h 0,0 UV-I 0 W/m 0,0 km/h (0 Bft)
07.10.2013 20:00 11,4 C 9,5 C 93 % 1025,5 hPa 0,0 l/m 0,00 h 0,00 h 0,0 UV-I 0 W/m 0,0 km/h (0 Bft)
07.10.2013 21:00 10,5 C 8,8 C 96 % 1025,7 hPa 0,0 l/m 0,00 h 0,00 h 0,0 UV-I 0 W/m 0,0 km/h (0 Bft)
07.10.2013 22:00 9,8 C 8,3 C 96 % 1025,8 hPa 0,0 l/m 0,00 h 0,00 h 0,0 UV-I 0 W/m 0,0 km/h (0 Bft)
07.10.2013 23:00 9,5 C 8,0 C 97 % 1025,7 hPa 0,0 l/m 0,00 h 0,00 h 0,0 UV-I 0 W/m 0,0 km/h (0 Bft)
08.10.2013 00:00 10,0 C 9,1 C 97 % 1025,6 hPa 0,0 l/m 0,00 h 0,00 h 0,0 UV-I 0 W/m 0,0 km/h (0 Bft)
08.10.2013 01:00 10,7 C 9,9 C 98 % 1025,3 hPa 0,0 l/m 0,00 h 0,00 h 0,0 UV-I 0 W/m 0,0 km/h (0 Bft)
08.10.2013 02:00 11,3 C 10,4 C 97 % 1025,1 hPa 0,0 l/m 0,00 h 0,00 h 0,0 UV-I 0 W/m 0,0 km/h (0 Bft)
08.10.2013 03:00 11,9 C 10,9 C 96 % 1024,7 hPa 0,0 l/m 0,00 h 0,00 h 0,0 UV-I 0 W/m 0,0 km/h (0 Bft)
08.10.2013 04:00 12,0 C 11,1 C 96 % 1024,4 hPa 0,0 l/m 0,00 h 0,00 h 0,0 UV-I 0 W/m 0,0 km/h (0 Bft)
08.10.2013 05:00 11,8 C 10,7 C 96 % 1024,4 hPa 0,0 l/m 0,00 h 0,00 h 0,0 UV-I 0 W/m 0,0 km/h (0 Bft)
08.10.2013 06:00 11,9 C 10,8 C 96 % 1024,3 hPa 0,0 l/m 0,00 h 0,00 h 0,0 UV-I 0 W/m 0,0 km/h (0 Bft)
08.10.2013 07:00 11,8 C 10,6 C 96 % 1024,3 hPa 0,0 l/m 0,00 h 0,00 h 0,0 UV-I 5 W/m 0,0 km/h (0 Bft)
08.10.2013 08:00 11,9 C 11,0 C 97 % 1024,6 hPa 0,0 l/m 0,00 h 0,00 h 0,0 UV-I 24 W/m 0,0 km/h (0 Bft)
08.10.2013 09:00 13,0 C 12,4 C 95 % 1025,0 hPa 0,0 l/m 0,00 h 0,00 h 0,0 UV-I 76 W/m 0,0 km/h (0 Bft)
08.10.2013 10:00 14,1 C 13,6 C 90 % 1025,1 hPa 0,0 l/m 0,00 h 0,00 h 0,0 UV-I 118 W/m 0,0 km/h (0 Bft)
08.10.2013 11:00 14,9 C 14,7 C 89 % 1025,2 hPa 0,0 l/m 0,00 h 0,00 h 0,0 UV-I 132 W/m 0,0 km/h (0 Bft)
08.10.2013 12:00 16,0 C 15,9 C 85 % 1025,0 hPa 0,0 l/m 0,00 h 0,00 h 0,7 UV-I 189 W/m 0,0 km/h (0 Bft)
08.10.2013 13:00 17,3 C 17,0 C 73 % 1024,6 hPa 0,0 l/m 0,37 h 0,00 h 1,3 UV-I 336 W/m 0,0 km/h (0 Bft)
08.10.2013 14:00 17,6 C 17,0 C 68 % 1024,0 hPa 0,0 l/m 0,07 h 0,00 h 0,6 UV-I 213 W/m 0,0 km/h (0 Bft)
08.10.2013 15:00 17,5 C 16,9 C 68 % 1023,8 hPa 0,0 l/m 0,03 h 0,00 h 0,6 UV-I 162 W/m 0,0 km/h (0 Bft)
08.10.2013 16:00 17,3 C 16,4 C 69 % 1023,7 hPa 0,0 l/m 0,03 h 0,00 h 0,0 UV-I 116 W/m 0,0 km/h (0 Bft)
08.10.2013 17:00 16,7 C 15,5 C 74 % 1023,6 hPa 0,0 l/m 0,00 h 0,00 h 0,0 UV-I 57 W/m 0,0 km/h (0 Bft)
08.10.2013 18:00 16,0 C 14,4 C 79 % 1023,7 hPa 0,0 l/m 0,00 h 0,00 h 0,0 UV-I 20 W/m 0,0 km/h (0 Bft)
08.10.2013 19:00 15,4 C 13,4 C 80 % 1024,1 hPa 0,0 l/m 0,00 h 0,00 h 0,0 UV-I 0 W/m 0,0 km/h (0 Bft)
08.10.2013 20:00 15,1 C 13,3 C 83 % 1024,3 hPa 0,0 l/m 0,00 h 0,00 h 0,0 UV-I 0 W/m 0,0 km/h (0 Bft)
08.10.2013 21:00 14,9 C 13,3 C 85 % 1024,1 hPa 0,0 l/m 0,00 h 0,00 h 0,0 UV-I 0 W/m 0,0 km/h (0 Bft)
08.10.2013 22:00 15,0 C 13,3 C 84 % 1023,8 hPa 0,0 l/m 0,00 h 0,00 h 0,0 UV-I 0 W/m 0,0 km/h (0 Bft)
08.10.2013 23:00 14,9 C 13,3 C 85 % 1023,5 hPa 0,0 l/m 0,00 h 0,00 h 0,0 UV-I 0 W/m 0,0 km/h (0 Bft)
09.10.2013 00:00 14,8 C 13,3 C 86 % 1023,1 hPa 0,0 l/m 0,00 h 0,00 h 0,0 UV-I 0 W/m 0,0 km/h (0 Bft)
09.10.2013 01:00 14,7 C 13,3 C 87 % 1023,0 hPa 0,0 l/m 0,00 h 0,00 h 0,0 UV-I 0 W/m 0,0 km/h (0 Bft)
09.10.2013 02:00 14,6 C 13,3 C 88 % 1022,9 hPa 0,0 l/m 0,00 h 0,03 h 0,0 UV-I 0 W/m 0,0 km/h (0 Bft)
09.10.2013 03:00 14,6 C 13,3 C 88 % 1022,1 hPa 0,0 l/m 0,00 h 0,00 h 0,0 UV-I 0 W/m 0,0 km/h (0 Bft)
09.10.2013 04:00 14,4 C 13,2 C 89 % 1021,5 hPa 0,0 l/m 0,00 h 0,00 h 0,0 UV-I 0 W/m 0,0 km/h (0 Bft)
09.10.2013 05:00 14,2 C 12,9 C 90 % 1020,9 hPa 0,0 l/m 0,00 h 0,00 h 0,0 UV-I 0 W/m 0,0 km/h (0 Bft)
09.10.2013 06:00 14,2 C 12,8 C 91 % 1020,3 hPa 0,0 l/m 0,00 h 0,07 h 0,0 UV-I 0 W/m 0,0 km/h (0 Bft)
09.10.2013 07:00 14,2 C 12,8 C 92 % 1019,9 hPa 0,0 l/m 0,00 h 0,00 h 0,0 UV-I 5 W/m 0,0 km/h (0 Bft)
09.10.2013 08:00 14,1 C 13,0 C 92 % 1019,5 hPa 0,0 l/m 0,00 h 0,00 h 0,0 UV-I 33 W/m 0,0 km/h (0 Bft)
09.10.2013 09:00 14,4 C 13,5 C 92 % 1019,3 hPa 0,0 l/m 0,00 h 0,00 h 0,0 UV-I 53 W/m 0,0 km/h (0 Bft)
09.10.2013 10:00 14,3 C 13,1 C 94 % 1019,1 hPa 0,4 l/m 0,00 h 0,53 h 0,0 UV-I 48 W/m 0,0 km/h (0 Bft)
09.10.2013 11:00 14,5 C 13,4 C 97 % 1018,3 hPa 0,0 l/m 0,03 h 0,10 h 0,5 UV-I 119 W/m 5,9 km/h (2 Bft)
09.10.2013 12:00 14,7 C 13,8 C 95 % 1017,6 hPa 0,0 l/m 0,00 h 0,00 h 0,6 UV-I 116 W/m 8,2 km/h (2 Bft)
09.10.2013 13:00 15,1 C 13,9 C 95 % 1016,7 hPa 0,0 l/m 0,00 h 0,07 h 0,6 UV-I 141 W/m 10,5 km/h (2 Bft)
09.10.2013 14:00 15,9 C 14,6 C 91 % 1015,4 hPa 0,0 l/m 0,07 h 0,17 h 0,9 UV-I 125 W/m 9,1 km/h (2 Bft)
09.10.2013 15:00 15,3 C 13,5 C 91 % 1014,7 hPa 0,4 l/m 0,00 h 0,23 h 0,0 UV-I 51 W/m 7,6 km/h (2 Bft)
09.10.2013 16:00 14,1 C 12,5 C 89 % 1014,1 hPa 0,0 l/m 0,00 h 0,00 h 0,0 UV-I 80 W/m 1,2 km/h (1 Bft)
09.10.2013 17:00 14,4 C 12,6 C 85 % 1013,4 hPa 0,0 l/m 0,00 h 0,00 h 0,0 UV-I 38 W/m 3,6 km/h (1 Bft)
09.10.2013 18:00 13,8 C 11,8 C 83 % 1012,9 hPa 0,0 l/m 0,00 h 0,00 h 0,0 UV-I 10 W/m 2,2 km/h (1 Bft)
09.10.2013 19:00 12,5 C 10,5 C 86 % 1012,4 hPa 0,0 l/m 0,00 h 0,00 h 0,0 UV-I 0 W/m 0,0 km/h (0 Bft)
09.10.2013 20:00 12,0 C 10,7 C 89 % 1011,6 hPa 0,0 l/m 0,00 h 0,00 h 0,0 UV-I 0 W/m 0,1 km/h (0 Bft)
09.10.2013 21:00 12,6 C 11,5 C 88 % 1010,5 hPa 0,0 l/m 0,00 h 0,00 h 0,0 UV-I 0 W/m 8,1 km/h (2 Bft)
09.10.2013 22:00 12,3 C 10,6 C 89 % 1010,0 hPa 1,0 l/m 0,00 h 0,80 h 0,0 UV-I 0 W/m 3,4 km/h (1 Bft)
09.10.2013 23:00 11,3 C 10,0 C 96 % 1009,0 hPa 1,4 l/m 0,00 h 0,90 h 0,0 UV-I 0 W/m 1,4 km/h (1 Bft)
10.10.2013 00:00 11,1 C 9,9 C 97 % 1008,6 hPa 2,0 l/m 0,00 h 0,97 h 0,0 UV-I 0 W/m 4,3 km/h (1 Bft)
10.10.2013 01:00 9,7 C 8,3 C 97 % 1008,8 hPa 1,6 l/m 0,00 h 0,97 h 0,0 UV-I 0 W/m 7,4 km/h (2 Bft)
10.10.2013 02:00 9,0 C 8,1 C 97 % 1008,9 hPa 1,2 l/m 0,00 h 0,97 h 0,0 UV-I 0 W/m 0,4 km/h (0 Bft)
10.10.2013 03:00 8,4 C 7,7 C 97 % 1008,4 hPa 0,4 l/m 0,00 h 0,55 h 0,0 UV-I 0 W/m 0,5 km/h (0 Bft)
10.10.2013 04:00 8,1 C 7,1 C 98 % 1007,9 hPa 0,0 l/m 0,00 h 0,00 h 0,0 UV-I 0 W/m 0,4 km/h (0 Bft)
10.10.2013 05:00 7,5 C 6,6 C 98 % 1007,7 hPa 0,0 l/m 0,00 h 0,00 h 0,0 UV-I 0 W/m 0,5 km/h (0 Bft)
10.10.2013 06:00 7,1 C 6,2 C 98 % 1007,4 hPa 0,0 l/m 0,00 h 0,00 h 0,0 UV-I 0 W/m 0,8 km/h (0 Bft)
10.10.2013 07:00 6,8 C 5,7 C 98 % 1007,0 hPa 0,0 l/m 0,00 h 0,07 h 0,0 UV-I 5 W/m 1,9 km/h (1 Bft)
10.10.2013 08:00 6,7 C 5,7 C 97 % 1007,1 hPa 0,0 l/m 0,00 h 0,00 h 0,0 UV-I 22 W/m 1,9 km/h (1 Bft)
10.10.2013 09:00 6,9 C 6,1 C 97 % 1007,5 hPa 0,0 l/m 0,03 h 0,00 h 0,0 UV-I 62 W/m 2,7 km/h (1 Bft)
10.10.2013 10:00 7,6 C 7,0 C 95 % 1007,7 hPa 0,0 l/m 0,00 h 0,00 h 0,0 UV-I 90 W/m 3,4 km/h (1 Bft)
10.10.2013 11:00 7,8 C 7,4 C 95 % 1007,9 hPa 0,2 l/m 0,00 h 0,43 h 0,0 UV-I 109 W/m 0,2 km/h (0 Bft)
10.10.2013 12:00 9,3 C 8,9 C 93 % 1008,1 hPa 0,0 l/m 0,40 h 0,00 h 0,7 UV-I 353 W/m 2,9 km/h (1 Bft)
10.10.2013 13:00 9,4 C 8,9 C 87 % 1008,2 hPa 0,0 l/m 0,13 h 0,03 h 1,1 UV-I 198 W/m 2,0 km/h (1 Bft)
10.10.2013 14:00 10,7 C 9,9 C 82 % 1008,1 hPa 0,0 l/m 0,40 h 0,00 h 0,8 UV-I 296 W/m 2,9 km/h (1 Bft)
10.10.2013 15:00 11,0 C 9,9 C 77 % 1008,0 hPa 0,0 l/m 0,27 h 0,00 h 0,8 UV-I 222 W/m 1,7 km/h (1 Bft)
10.10.2013 16:00 11,7 C 10,5 C 73 % 1008,1 hPa 0,0 l/m 0,83 h 0,00 h 0,0 UV-I 260 W/m 3,8 km/h (1 Bft)
10.10.2013 17:00 11,3 C 9,6 C 76 % 1008,0 hPa 0,0 l/m 0,40 h 0,00 h 0,0 UV-I 105 W/m 0,0 km/h (0 Bft)
10.10.2013 18:00 10,4 C 9,1 C 81 % 1008,2 hPa 0,0 l/m 0,00 h 0,00 h 0,0 UV-I 22 W/m 0,0 km/h (0 Bft)
10.10.2013 19:00 9,0 C 7,1 C 89 % 1008,6 hPa 0,0 l/m 0,00 h 0,00 h 0,0 UV-I 0 W/m 0,0 km/h (0 Bft)
10.10.2013 20:00 8,2 C 6,7 C 93 % 1008,8 hPa 0,0 l/m 0,00 h 0,00 h 0,0 UV-I 0 W/m 0,0 km/h (0 Bft)
10.10.2013 21:00 8,1 C 6,8 C 95 % 1008,9 hPa 0,0 l/m 0,00 h 0,00 h 0,0 UV-I 0 W/m 0,1 km/h (0 Bft)
10.10.2013 22:00 8,5 C 7,6 C 94 % 1009,5 hPa 0,0 l/m 0,00 h 0,00 h 0,0 UV-I 0 W/m 1,8 km/h (1 Bft)
10.10.2013 23:00 8,3 C 7,1 C 93 % 1010,0 hPa 0,0 l/m 0,00 h 0,37 h 0,0 UV-I 0 W/m 2,2 km/h (1 Bft)
11.10.2013 00:00 7,5 C 6,1 C 95 % 1010,5 hPa 0,0 l/m 0,00 h 0,00 h 0,0 UV-I 0 W/m 0,0 km/h (0 Bft)
11.10.2013 01:00 7,1 C 6,0 C 96 % 1011,2 hPa 0,0 l/m 0,00 h 0,00 h 0,0 UV-I 0 W/m 1,3 km/h (1 Bft)
11.10.2013 02:00 6,4 C 5,1 C 97 % 1012,1 hPa 0,0 l/m 0,00 h 0,00 h 0,0 UV-I 0 W/m 0,3 km/h (0 Bft)
11.10.2013 03:00 5,3 C 4,0 C 97 % 1012,4 hPa 0,0 l/m 0,00 h 0,00 h 0,0 UV-I 0 W/m 0,0 km/h (0 Bft)
11.10.2013 04:00 5,6 C 4,6 C 97 % 1012,8 hPa 0,0 l/m 0,00 h 0,00 h 0,0 UV-I 0 W/m 0,1 km/h (0 Bft)
11.10.2013 05:00 5,8 C 5,0 C 98 % 1012,9 hPa 0,0 l/m 0,00 h 0,00 h 0,0 UV-I 0 W/m 0,0 km/h (0 Bft)
11.10.2013 06:00 5,9 C 5,0 C 97 % 1013,3 hPa 0,0 l/m 0,00 h 0,00 h 0,0 UV-I 0 W/m 0,5 km/h (0 Bft)
11.10.2013 07:00 6,0 C 5,0 C 97 % 1014,1 hPa 0,0 l/m 0,00 h 0,00 h 0,0 UV-I 0 W/m 0,0 km/h (0 Bft)
11.10.2013 08:00 6,2 C 5,4 C 97 % 1014,4 hPa 0,0 l/m 0,00 h 0,00 h 0,0 UV-I 13 W/m 0,3 km/h (0 Bft)
11.10.2013 09:00 6,7 C 6,1 C 96 % 1014,6 hPa 0,0 l/m 0,00 h 0,13 h 0,0 UV-I 49 W/m 0,8 km/h (0 Bft)
11.10.2013 10:00 7,3 C 6,7 C 95 % 1014,6 hPa 0,0 l/m 0,00 h 0,57 h 0,0 UV-I 76 W/m 2,6 km/h (1 Bft)
11.10.2013 11:00 7,9 C 7,2 C 95 % 1014,7 hPa 0,0 l/m 0,00 h 0,47 h 0,0 UV-I 103 W/m 0,4 km/h (0 Bft)
11.10.2013 12:00 8,4 C 7,6 C 95 % 1014,9 hPa 0,2 l/m 0,00 h 0,70 h 0,0 UV-I 100 W/m 0,3 km/h (0 Bft)
11.10.2013 13:00 8,3 C 7,2 C 95 % 1015,4 hPa 0,8 l/m 0,00 h 0,97 h 0,0 UV-I 54 W/m 0,2 km/h (0 Bft)
11.10.2013 14:00 8,5 C 7,9 C 97 % 1015,1 hPa 0,6 l/m 0,00 h 0,53 h 0,0 UV-I 105 W/m 0,4 km/h (0 Bft)
11.10.2013 15:00 8,4 C 7,7 C 96 % 1014,7 hPa 0,2 l/m 0,00 h 0,53 h 0,0 UV-I 89 W/m 0,0 km/h (0 Bft)
11.10.2013 16:00 8,3 C 7,3 C 94 % 1015,0 hPa 0,4 l/m 0,00 h 0,97 h 0,0 UV-I 39 W/m 0,0 km/h (0 Bft)
11.10.2013 17:00 7,9 C 6,9 C 96 % 1015,5 hPa 1,2 l/m 0,00 h 0,97 h 0,0 UV-I 16 W/m 0,0 km/h (0 Bft)
11.10.2013 18:00 7,5 C 6,6 C 97 % 1015,4 hPa 1,0 l/m 0,00 h 0,93 h 0,0 UV-I 8 W/m 0,0 km/h (0 Bft)
11.10.2013 19:00 7,1 C 6,1 C 97 % 1015,5 hPa 0,2 l/m 0,00 h 0,67 h 0,0 UV-I 0 W/m 0,0 km/h (0 Bft)
11.10.2013 20:00 7,0 C 6,1 C 98 % 1015,5 hPa 0,6 l/m 0,00 h 0,73 h 0,0 UV-I 0 W/m 0,0 km/h (0 Bft)
11.10.2013 21:00 7,0 C 6,1 C 98 % 1015,6 hPa 0,2 l/m 0,00 h 0,47 h 0,0 UV-I 0 W/m 0,0 km/h (0 Bft)
11.10.2013 22:00 6,8 C 5,9 C 98 % 1016,0 hPa 0,4 l/m 0,00 h 0,40 h 0,0 UV-I 0 W/m 0,2 km/h (0 Bft)
11.10.2013 23:00 6,6 C 5,6 C 98 % 1016,6 hPa 0,0 l/m 0,00 h 0,00 h 0,0 UV-I 0 W/m 0,1 km/h (0 Bft)
12.10.2013 00:00 6,8 C 6,0 C 98 % 1017,1 hPa 0,0 l/m 0,00 h 0,00 h 0,0 UV-I 0 W/m 0,3 km/h (0 Bft)
12.10.2013 01:00 6,3 C 5,2 C 98 % 1017,3 hPa 0,0 l/m 0,00 h 0,00 h 0,0 UV-I 0 W/m 0,1 km/h (0 Bft)
12.10.2013 02:00 5,8 C 4,8 C 98 % 1018,1 hPa 0,0 l/m 0,00 h 0,00 h 0,0 UV-I 0 W/m 2,7 km/h (1 Bft)
12.10.2013 03:00 4,9 C 3,7 C 98 % 1018,4 hPa 0,0 l/m 0,00 h 0,00 h 0,0 UV-I 0 W/m 0,4 km/h (0 Bft)
12.10.2013 04:00 4,3 C 3,1 C 98 % 1018,9 hPa 0,0 l/m 0,00 h 0,00 h 0,0 UV-I 0 W/m 0,3 km/h (0 Bft)
12.10.2013 05:00 3,6 C 2,3 C 98 % 1018,9 hPa 0,0 l/m 0,00 h 0,00 h 0,0 UV-I 0 W/m 0,0 km/h (0 Bft)
12.10.2013 06:00 2,9 C 1,8 C 98 % 1019,0 hPa 0,0 l/m 0,00 h 0,03 h 0,0 UV-I 0 W/m 0,0 km/h (0 Bft)
12.10.2013 07:00 2,3 C 1,1 C 98 % 1018,9 hPa 0,0 l/m 0,00 h 0,03 h 0,0 UV-I 8 W/m 0,0 km/h (0 Bft)
12.10.2013 08:00 2,7 C 1,8 C 98 % 1019,5 hPa 0,0 l/m 0,00 h 0,00 h 0,0 UV-I 33 W/m 0,0 km/h (0 Bft)
12.10.2013 09:00 3,6 C 3,0 C 99 % 1019,8 hPa 0,0 l/m 0,00 h 0,00 h 0,0 UV-I 66 W/m 0,0 km/h (0 Bft)
12.10.2013 10:00 4,5 C 4,2 C 99 % 1019,9 hPa 0,0 l/m 0,00 h 0,00 h 0,0 UV-I 120 W/m 0,0 km/h (0 Bft)
12.10.2013 11:00 6,3 C 5,9 C 99 % 1019,8 hPa 0,0 l/m 0,47 h 0,00 h 0,7 UV-I 257 W/m 0,4 km/h (0 Bft)
12.10.2013 12:00 8,2 C 7,0 C 93 % 1019,5 hPa 0,0 l/m 0,90 h 0,00 h 0,8 UV-I 458 W/m 1,2 km/h (1 Bft)
12.10.2013 13:00 9,3 C 8,5 C 87 % 1018,7 hPa 0,0 l/m 0,77 h 0,00 h 0,7 UV-I 369 W/m 2,1 km/h (1 Bft)
12.10.2013 14:00 10,2 C 9,0 C 84 % 1017,8 hPa 0,0 l/m 0,43 h 0,00 h 0,7 UV-I 287 W/m 2,3 km/h (1 Bft)
12.10.2013 15:00 10,5 C 9,9 C 83 % 1017,3 hPa 0,0 l/m 0,00 h 0,00 h 0,0 UV-I 135 W/m 1,0 km/h (0 Bft)
12.10.2013 16:00 10,1 C 9,1 C 85 % 1016,4 hPa 0,0 l/m 0,00 h 0,00 h 0,0 UV-I 56 W/m 2,1 km/h (1 Bft)
12.10.2013 17:00 9,3 C 8,3 C 89 % 1016,3 hPa 0,0 l/m 0,00 h 0,00 h 0,0 UV-I 18 W/m 2,3 km/h (1 Bft)
12.10.2013 18:00 8,7 C 7,6 C 89 % 1016,2 hPa 0,0 l/m 0,00 h 0,00 h 0,0 UV-I 9 W/m 1,9 km/h (1 Bft)
12.10.2013 19:00 8,0 C 6,7 C 93 % 1015,9 hPa 0,0 l/m 0,00 h 0,10 h 0,0 UV-I 0 W/m 0,0 km/h (0 Bft)
12.10.2013 20:00 7,9 C 6,7 C 95 % 1015,5 hPa 0,0 l/m 0,00 h 0,70 h 0,0 UV-I 0 W/m 0,0 km/h (0 Bft)
12.10.2013 21:00 7,8 C 6,7 C 96 % 1015,3 hPa 0,2 l/m 0,00 h 0,53 h 0,0 UV-I 0 W/m 1,3 km/h (1 Bft)
12.10.2013 22:00 7,6 C 6,7 C 97 % 1015,5 hPa 0,2 l/m 0,00 h 0,73 h 0,0 UV-I 0 W/m 0,2 km/h (0 Bft)
12.10.2013 23:00 7,4 C 6,1 C 97 % 1015,3 hPa 0,0 l/m 0,00 h 0,67 h 0,0 UV-I 0 W/m 0,4 km/h (0 Bft)
13.10.2013 00:00 7,2 C 6,1 C 96 % 1014,9 hPa 0,0 l/m 0,00 h 0,20 h 0,0 UV-I 0 W/m 0,7 km/h (0 Bft)
13.10.2013 01:00 7,0 C 5,8 C 97 % 1014,8 hPa 0,0 l/m 0,00 h 0,00 h 0,0 UV-I 0 W/m 0,9 km/h (0 Bft)
13.10.2013 02:00 6,8 C 5,6 C 97 % 1014,8 hPa 0,0 l/m 0,00 h 0,07 h 0,0 UV-I 0 W/m 2,3 km/h (1 Bft)
13.10.2013 03:00 6,8 C 5,6 C 97 % 1014,4 hPa 0,2 l/m 0,00 h 0,40 h 0,0 UV-I 0 W/m 4,2 km/h (1 Bft)
13.10.2013 04:00 6,9 C 5,8 C 97 % 1014,5 hPa 0,0 l/m 0,00 h 0,23 h 0,0 UV-I 0 W/m 3,9 km/h (1 Bft)
13.10.2013 05:00 7,1 C 5,9 C 96 % 1014,5 hPa 0,0 l/m 0,00 h 0,17 h 0,0 UV-I 0 W/m 5,8 km/h (1 Bft)
13.10.2013 06:00 6,8 C 5,6 C 97 % 1014,4 hPa 0,4 l/m 0,00 h 0,77 h 0,0 UV-I 0 W/m 6,3 km/h (2 Bft)
13.10.2013 07:00 6,9 C 5,7 C 97 % 1014,2 hPa 0,4 l/m 0,00 h 0,90 h 0,0 UV-I 0 W/m 10,8 km/h (2 Bft)
13.10.2013 08:00 7,2 C 6,1 C 97 % 1014,4 hPa 0,4 l/m 0,00 h 0,97 h 0,0 UV-I 23 W/m 14,5 km/h (3 Bft)
13.10.2013 09:00 7,5 C 6,4 C 97 % 1014,8 hPa 0,4 l/m 0,00 h 0,77 h 0,0 UV-I 37 W/m 14,5 km/h (3 Bft)
13.10.2013 10:00 7,7 C 6,7 C 97 % 1015,2 hPa 0,4 l/m 0,00 h 0,97 h 0,0 UV-I 62 W/m 15,0 km/h (3 Bft)
13.10.2013 11:00 8,3 C 7,4 C 97 % 1015,2 hPa 0,6 l/m 0,00 h 0,87 h 0,0 UV-I 117 W/m 18,9 km/h (3 Bft)
13.10.2013 12:00 9,2 C 7,8 C 93 % 1015,1 hPa 0,0 l/m 0,00 h 0,13 h 0,0 UV-I 171 W/m 26,0 km/h (4 Bft)
13.10.2013 13:00 10,1 C 9,0 C 85 % 1015,0 hPa 0,0 l/m 0,33 h 0,00 h 0,8 UV-I 259 W/m 30,8 km/h (5 Bft)
13.10.2013 14:00 10,2 C 9,4 C 83 % 1014,4 hPa 0,0 l/m 0,00 h 0,00 h 0,5 UV-I 183 W/m 30,3 km/h (5 Bft)
13.10.2013 15:00 10,2 C 9,3 C 81 % 1014,2 hPa 0,0 l/m 0,00 h 0,00 h 0,0 UV-I 134 W/m 26,6 km/h (4 Bft)
13.10.2013 16:00 10,0 C 8,9 C 80 % 1014,4 hPa 0,0 l/m 0,00 h 0,00 h 0,0 UV-I 94 W/m 28,0 km/h (4 Bft)
13.10.2013 17:00 9,5 C 8,3 C 80 % 1014,5 hPa 0,0 l/m 0,00 h 0,00 h 0,0 UV-I 30 W/m 26,6 km/h (4 Bft)
13.10.2013 18:00 9,3 C 7,8 C 81 % 1014,1 hPa 0,0 l/m 0,00 h 0,03 h 0,0 UV-I 9 W/m 25,8 km/h (4 Bft)
13.10.2013 19:00 9,5 C 8,2 C 81 % 1014,2 hPa 0,0 l/m 0,00 h 0,07 h 0,0 UV-I 0 W/m 25,2 km/h (4 Bft)
13.10.2013 20:00 9,4 C 7,6 C 83 % 1014,4 hPa 0,0 l/m 0,00 h 0,60 h 0,0 UV-I 0 W/m 25,0 km/h (4 Bft)
13.10.2013 21:00 8,8 C 6,7 C 89 % 1014,4 hPa 0,2 l/m 0,00 h 0,97 h 0,0 UV-I 0 W/m 17,0 km/h (3 Bft)
13.10.2013 22:00 8,9 C 6,9 C 89 % 1014,6 hPa 0,0 l/m 0,00 h 0,60 h 0,0 UV-I 0 W/m 17,4 km/h (3 Bft)
13.10.2013 23:00 9,2 C 7,6 C 88 % 1014,7 hPa 0,0 l/m 0,00 h 0,10 h 0,0 UV-I 0 W/m 17,5 km/h (3 Bft)
Min-Datum _ 12.10.13 12.10.13 07.10.13 10.10.13 - - - - - 07.10.13
_ Min-Zeit 07:38 06:56 14:24 07:34 - - - - - 00:00
Minimum _ 2,1 C 1,1 C 64 % 1006,9 hPa - - - - - 0,0 km/h (0 Bft)
Max-Datum _ 07.10.13 07.10.13 10.10.13 07.10.13 10.10.13 07.10.13 09.10.13 07.10.13 10.10.13 13.10.13
_ Max-Zeit 14:02 15:46 21:54 11:40 00:50 09:40 02:38 13:30 12:38 13:00
Maximum _ 18,4 C 17,8 C 99 % 1027,0 hPa 2,0 l/m 0,03 h 0,03 h 1,8 UV-I 700 W/m 48,9 km/h
S-SO (6 Bft)
Durchschnitt _ 10,2 C 9,1 C 91 % 1017,5 hPa #17,8 l/m #10:22 h #28:01 h 0,8 UV-I 125 W/m 3,1 km/h (1 Bft)
© 2013 W. Hausmann